KLAL/LAL METAR and TAF weather

Enter ICAO airport designator
Station Type Date Time Source
KLAL METAR 2020/04/09 09:50 UTC NOAA

KLAL 090950Z 00000KT 5SM BR SCT003 21/21 A2987


Station Type Date Time Source
KLAL Decoded METAR 2020/04/09 09:50 UTC NOAA

Lakeland Regional, FL, United States (KLAL) 27-59N 082-01W
Apr 09, 2020 - 05:50 AM EDT / 2020.04.09 0950 UTC
Wind: Calm:0
Visibility: 5 mile(s):0
Sky conditions: partly cloudy
Weather: mist
Temperature: 69 F (21 C)
Dew Point: 69 F (21 C)
Relative Humidity: 100%
Pressure (altimeter): 29.87 in. Hg (1011 hPa)
ob: KLAL 090950Z 00000KT 5SM BR SCT003 21/21 A2987
cycle: 10

Station Type Date Time Source
KLAL TAF 2020/04/09 06:45 UTC NOAA

TAF KLAL 090541Z 0906/1006 26005KT P6SM SCT015 SCT250
TEMPO 0910/0914 5SM BR SCT008 BKN015
FM091400 28011KT P6SM SCT015 BKN025
FM091800 27014G22KT P6SM SCT030 BKN250
FM100100 28005KT P6SM SCT015 BKN040
AMD NOT SKED TIL 091100

Example: see airport list